Time;durP1;ratioP1;P1;durP2;ratioP2;P2;SDS_P1;SDS_P2;PMS_P1;PMS_P2;Temp;Humidity;BMP_temperature;BMP_pressure;BME280_temperature;BME280_humidity;BME280_pressure;Samples;Min_cycle;Max_cycle;Signal;HPM_P1;HPM_P2
2023/10/30 00:01:42;;;;;;;1.20;1.08;;;11.70;99.90;;;;;;4929662;29;20212;-67
2023/10/30 00:04:09;;;;;;;1.40;1.30;;;11.70;99.90;;;;;;4934207;29;20238;-67
2023/10/30 00:06:36;;;;;;;1.20;1.02;;;11.70;99.90;;;;;;4932243;29;20248;-67
2023/10/30 00:09:03;;;;;;;4.53;1.20;;;11.70;99.90;;;;;;4927049;29;20200;-67
2023/10/30 00:11:29;;;;;;;1.23;1.13;;;11.70;99.90;;;;;;4933753;29;20211;-67
2023/10/30 00:13:56;;;;;;;1.88;1.70;;;11.70;99.90;;;;;;4930278;29;20267;-67
2023/10/30 04:33:18;;;;;;;1.73;1.58;;;11.00;99.90;;;;;;4935238;29;20285;-92
2023/10/30 04:35:47;;;;;;;1.85;1.20;;;11.00;99.90;;;;;;4937973;29;20230;-92
2023/10/30 04:38:14;;;;;;;2.63;1.73;;;10.90;99.90;;;;;;4937092;29;20310;-92
2023/10/30 04:40:41;;;;;;;1.90;1.50;;;10.90;99.90;;;;;;4937794;29;20336;-92
2023/10/30 04:43:07;;;;;;;1.80;1.65;;;10.90;99.90;;;;;;4936890;29;20216;-93
2023/10/30 04:45:34;;;;;;;1.65;1.55;;;10.90;99.90;;;;;;4918571;29;20210;-93
2023/10/30 04:48:04;;;;;;;2.15;1.60;;;10.90;99.90;;;;;;4919374;29;20203;-93
2023/10/30 04:50:32;;;;;;;2.45;1.80;;;10.80;99.90;;;;;;4921396;29;20302;-92
2023/10/30 04:52:59;;;;;;;2.20;2.00;;;10.80;99.90;;;;;;4922380;29;20211;-93
2023/10/30 04:55:26;;;;;;;2.20;1.80;;;10.80;99.90;;;;;;4917836;29;20219;-93
2023/10/30 04:57:53;;;;;;;2.10;1.63;;;10.80;99.90;;;;;;4925930;29;20264;-93
2023/10/30 05:00:20;;;;;;;2.67;2.47;;;10.80;99.90;;;;;;4914455;29;20296;-93
2023/10/30 05:02:50;;;;;;;2.20;2.00;;;10.80;99.90;;;;;;4905756;29;20237;-94
2023/10/30 05:05:17;;;;;;;2.70;2.03;;;10.80;99.90;;;;;;4915381;29;20210;-94
2023/10/30 05:07:45;;;;;;;2.30;2.05;;;10.80;99.90;;;;;;4903218;29;20290;-93
2023/10/30 05:10:12;;;;;;;1.88;1.67;;;10.80;99.90;;;;;;4906987;29;20209;-93
2023/10/30 05:12:42;;;;;;;2.40;2.20;;;10.80;99.90;;;;;;4921543;29;20238;-93
2023/10/30 05:15:09;;;;;;;2.25;2.05;;;10.80;99.90;;;;;;4917834;29;20203;-92
2023/10/30 05:17:37;;;;;;;4.13;2.75;;;10.80;99.90;;;;;;4914437;29;20235;-92
2023/10/30 05:20:05;;;;;;;2.67;2.47;;;10.80;99.90;;;;;;4909060;29;20732;-92
2023/10/30 05:22:33;;;;;;;4.90;2.83;;;10.80;99.90;;;;;;4921113;29;20303;-92
2023/10/30 05:25:05;;;;;;;2.20;2.10;;;10.80;99.90;;;;;;4927010;29;20736;-92
2023/10/30 05:30:35;;;;;;;2.60;2.38;;;10.70;99.90;;;;;;4907243;29;20294;-92
2023/10/30 05:33:02;;;;;;;2.65;2.45;;;10.60;99.90;;;;;;4924544;29;20215;-91
2023/10/30 05:35:29;;;;;;;2.50;2.30;;;10.60;99.90;;;;;;4916928;29;20206;-92
2023/10/30 05:37:56;;;;;;;3.33;2.95;;;10.50;99.90;;;;;;4927340;29;20250;-92
2023/10/30 05:40:25;;;;;;;2.28;2.08;;;10.50;99.90;;;;;;4938206;29;20271;-93
2023/10/30 05:42:52;;;;;;;3.08;2.80;;;10.40;99.90;;;;;;4915118;29;20219;-92
2023/10/30 05:45:30;;;;;;;3.75;2.50;;;10.40;99.90;;;;;;4914038;29;20214;-93
2023/10/30 05:47:57;;;;;;;2.75;2.45;;;10.30;99.90;;;;;;4921942;29;20198;-92
2023/10/30 05:50:24;;;;;;;2.92;2.60;;;10.30;99.90;;;;;;4933370;29;20217;-92
2023/10/30 05:52:51;;;;;;;3.05;2.50;;;10.30;99.90;;;;;;4927021;29;20214;-92
2023/10/30 05:56:16;;;;;;;2.72;2.53;;;10.30;99.90;;;;;;4939151;29;20262;-92
2023/10/30 05:59:30;;;;;;;3.17;2.85;;;10.20;99.90;;;;;;4853866;29;20240;-93
2023/10/30 06:02:34;;;;;;;5.82;2.90;;;10.10;99.90;;;;;;4886941;29;20252;-92
2023/10/30 06:05:21;;;;;;;3.63;3.33;;;10.10;99.90;;;;;;4888776;29;20225;-93
2023/10/30 06:07:50;;;;;;;2.50;2.30;;;10.00;99.90;;;;;;4939650;29;20337;-92
2023/10/30 06:10:19;;;;;;;3.70;2.70;;;10.00;99.90;;;;;;4930198;29;20214;-92
2023/10/30 06:12:47;;;;;;;2.47;2.28;;;9.90;99.90;;;;;;4926388;29;20234;-92
2023/10/30 06:15:24;;;;;;;3.05;2.78;;;9.90;99.90;;;;;;4933574;29;20221;-93
2023/10/30 06:18:10;;;;;;;3.35;2.90;;;9.80;99.90;;;;;;4950140;29;20269;-94
2023/10/30 06:21:00;;;;;;;;;;;;;;;;;;;;;
2023/10/30 06:26:58;;;;;;;3.85;2.80;;;9.70;99.90;;;;;;4857230;29;20207;-93
2023/10/30 06:32:46;;;;;;;3.88;3.05;;;9.60;99.90;;;;;;4979479;23;20238;-66
2023/10/30 06:35:13;;;;;;;4.35;3.40;;;9.60;99.90;;;;;;4974024;28;20208;-66
2023/10/30 06:37:41;;;;;;;3.40;3.08;;;9.60;99.90;;;;;;4973809;28;20208;-66
2023/10/30 06:40:08;;;;;;;3.25;2.95;;;9.60;99.90;;;;;;4973994;28;20208;-65
2023/10/30 06:42:35;;;;;;;3.38;2.78;;;9.70;99.90;;;;;;4974154;28;20231;-66
2023/10/30 06:45:02;;;;;;;3.50;3.20;;;9.70;99.90;;;;;;4973767;28;20244;-66
2023/10/30 06:47:32;;;;;;;3.40;3.10;;;9.70;99.90;;;;;;4966284;28;20216;-66
2023/10/30 06:49:59;;;;;;;4.20;3.65;;;9.70;99.90;;;;;;4973991;28;20268;-66
2023/10/30 06:52:26;;;;;;;5.35;3.85;;;9.70;99.90;;;;;;4973960;28;20247;-66
2023/10/30 06:54:54;;;;;;;4.97;4.20;;;9.80;99.90;;;;;;4973715;28;20696;-65
2023/10/30 06:57:20;;;;;;;6.93;4.30;;;9.80;99.90;;;;;;4973383;28;20231;-66
2023/10/30 06:59:52;;;;;;;6.05;4.10;;;9.80;99.90;;;;;;4970010;28;20229;-66
2023/10/30 07:02:19;;;;;;;7.78;4.90;;;9.90;99.90;;;;;;4972364;28;20263;-65
2023/10/30 07:04:46;;;;;;;5.40;4.38;;;9.90;99.90;;;;;;4973315;28;20213;-66
2023/10/30 07:07:13;;;;;;;5.63;4.28;;;10.00;99.90;;;;;;4972530;28;20212;-66
2023/10/30 07:09:40;;;;;;;4.80;4.10;;;10.10;99.90;;;;;;4973183;28;20210;-65
2023/10/30 07:12:08;;;;;;;5.15;4.65;;;10.10;99.90;;;;;;4972974;28;20238;-66
2023/10/30 07:14:35;;;;;;;4.50;4.07;;;10.20;99.90;;;;;;4973208;28;20203;-66
2023/10/30 07:17:02;;;;;;;4.25;3.95;;;10.30;99.90;;;;;;4972701;28;20219;-66
2023/10/30 07:19:28;;;;;;;4.22;3.67;;;10.40;99.90;;;;;;4972919;28;20598;-66
2023/10/30 07:21:55;;;;;;;4.55;4.10;;;10.50;99.90;;;;;;4972548;28;20240;-66
2023/10/30 07:24:22;;;;;;;6.32;4.80;;;10.60;99.90;;;;;;4972704;28;20210;-66
2023/10/30 07:26:49;;;;;;;4.78;4.15;;;10.90;99.90;;;;;;4972562;28;20637;-66
2023/10/30 07:29:17;;;;;;;4.68;3.85;;;11.10;99.90;;;;;;4972471;28;20206;-66
2023/10/30 07:31:44;;;;;;;4.50;3.97;;;11.30;99.90;;;;;;4972695;28;20229;-66
2023/10/30 07:34:10;;;;;;;4.05;3.65;;;11.50;99.90;;;;;;4972630;28;20212;-66
2023/10/30 07:36:37;;;;;;;4.18;3.78;;;11.70;99.90;;;;;;4971948;28;20214;-66
2023/10/30 07:39:04;;;;;;;4.80;4.35;;;11.90;99.90;;;;;;4972338;28;20229;-66
2023/10/30 07:41:31;;;;;;;6.18;4.25;;;12.10;99.90;;;;;;4972584;28;20233;-66
2023/10/30 07:43:58;;;;;;;4.50;4.10;;;12.30;99.90;;;;;;4972252;28;20224;-66
2023/10/30 07:46:26;;;;;;;4.93;4.37;;;12.40;99.90;;;;;;4972037;28;20730;-66
2023/10/30 07:48:54;;;;;;;5.22;4.72;;;12.70;99.90;;;;;;4972276;28;20465;-66
2023/10/30 07:51:20;;;;;;;5.90;4.57;;;12.90;99.90;;;;;;4972161;28;20237;-66
2023/10/30 07:53:47;;;;;;;5.40;4.67;;;13.00;99.90;;;;;;4972430;28;20470;-66
2023/10/30 07:56:14;;;;;;;5.00;4.50;;;13.20;99.90;;;;;;4971994;28;20972;-66
2023/10/30 07:58:40;;;;;;;4.10;3.70;;;13.30;99.90;;;;;;4971956;28;20494;-65
2023/10/30 08:01:07;;;;;;;6.80;4.27;;;13.40;99.90;;;;;;4971653;28;20857;-66
2023/10/30 08:03:35;;;;;;;4.33;3.93;;;13.60;99.90;;;;;;4972291;28;20502;-66
2023/10/30 08:06:02;;;;;;;3.40;3.10;;;13.80;99.90;;;;;;4971558;28;20982;-66
2023/10/30 08:08:31;;;;;;;5.30;4.20;;;14.10;99.90;;;;;;4972419;28;20458;-66
2023/10/30 08:10:58;;;;;;;5.00;3.53;;;14.60;99.90;;;;;;4972575;28;20483;-66
2023/10/30 08:13:24;;;;;;;3.70;3.30;;;15.10;99.90;;;;;;4972624;28;20991;-66
2023/10/30 08:15:54;;;;;;;4.03;3.43;;;15.30;99.90;;;;;;4972240;28;20578;-65
2023/10/30 08:18:21;;;;;;;4.97;3.80;;;15.60;99.90;;;;;;4972062;28;20502;-66
2023/10/30 08:20:50;;;;;;;4.07;3.67;;;15.90;99.90;;;;;;4972261;28;20491;-66
2023/10/30 08:23:17;;;;;;;4.60;4.10;;;16.40;99.90;;;;;;4972136;28;20466;-66
2023/10/30 08:25:46;;;;;;;3.60;3.27;;;16.80;99.90;;;;;;4971889;28;20467;-66
2023/10/30 08:28:12;;;;;;;4.00;3.43;;;17.10;99.90;;;;;;4971703;28;20466;-66
2023/10/30 08:30:39;;;;;;;3.70;3.27;;;17.40;99.90;;;;;;4965828;28;20481;-66
2023/10/30 08:33:06;;;;;;;3.73;3.40;;;17.60;99.90;;;;;;4972300;28;20460;-66
2023/10/30 08:35:33;;;;;;;5.40;3.67;;;17.90;99.90;;;;;;4971989;28;20467;-66
2023/10/30 08:38:03;;;;;;;3.87;3.57;;;18.00;99.90;;;;;;4971717;28;20499;-66
2023/10/30 08:40:30;;;;;;;3.43;3.13;;;18.00;99.90;;;;;;4970665;28;20487;-67
2023/10/30 08:42:59;;;;;;;3.43;3.13;;;17.90;99.90;;;;;;4971842;28;20981;-66
2023/10/30 08:45:27;;;;;;;5.30;3.33;;;17.90;99.90;;;;;;4970000;28;20459;-66
2023/10/30 08:47:53;;;;;;;3.87;3.37;;;18.10;99.90;;;;;;4971514;28;20989;-66
2023/10/30 08:50:20;;;;;;;4.57;4.17;;;18.30;99.90;;;;;;4970526;28;20513;-66
2023/10/30 08:52:47;;;;;;;4.43;3.37;;;18.50;99.90;;;;;;4971966;28;20572;-66
2023/10/30 08:55:15;;;;;;;4.37;3.73;;;18.50;99.90;;;;;;4971876;28;20467;-67
2023/10/30 08:57:42;;;;;;;6.00;3.73;;;18.70;99.90;;;;;;4965764;28;20467;-66
2023/10/30 09:00:10;;;;;;;4.00;3.00;;;18.70;99.90;;;;;;4971891;28;20579;-67
2023/10/30 09:02:38;;;;;;;4.40;3.60;;;18.70;99.90;;;;;;4971745;28;21131;-67
2023/10/30 09:05:07;;;;;;;4.60;3.47;;;18.60;99.90;;;;;;4971985;28;20466;-67
2023/10/30 09:07:34;;;;;;;3.07;2.77;;;18.50;99.90;;;;;;4970735;28;20474;-66
2023/10/30 09:10:00;;;;;;;3.27;2.97;;;18.30;99.90;;;;;;4970631;28;20462;-66
2023/10/30 09:12:29;;;;;;;3.30;2.77;;;18.10;99.90;;;;;;4972440;28;20485;-66
2023/10/30 09:14:56;;;;;;;3.10;2.80;;;17.80;99.90;;;;;;4971899;28;20473;-66
2023/10/30 09:17:23;;;;;;;3.53;3.03;;;17.60;99.90;;;;;;4973505;28;20496;-66
2023/10/30 09:19:50;;;;;;;2.67;2.10;;;17.50;99.90;;;;;;4974623;28;20485;-66
2023/10/30 09:22:16;;;;;;;2.70;2.40;;;17.50;99.90;;;;;;4974708;28;20871;-66
2023/10/30 09:24:43;;;;;;;2.83;2.53;;;17.40;99.90;;;;;;4968886;28;20470;-66
2023/10/30 09:27:10;;;;;;;3.10;2.60;;;17.30;99.90;;;;;;4974310;28;20983;-67
2023/10/30 09:29:38;;;;;;;2.77;2.43;;;17.30;99.90;;;;;;4974409;28;20968;-66
2023/10/30 09:32:06;;;;;;;4.37;3.20;;;17.30;99.90;;;;;;4974635;28;20505;-66
2023/10/30 09:34:34;;;;;;;4.07;2.70;;;17.30;99.90;;;;;;4973748;28;20477;-66
2023/10/30 09:37:01;;;;;;;2.93;2.63;;;17.20;99.90;;;;;;4974448;28;20553;-66
2023/10/30 09:39:28;;;;;;;2.63;2.43;;;17.00;99.90;;;;;;4975016;28;20490;-66
2023/10/30 09:41:59;;;;;;;3.30;3.00;;;16.90;99.90;;;;;;4974613;28;20493;-67
2023/10/30 09:44:26;;;;;;;3.00;2.70;;;16.90;99.90;;;;;;4972377;28;20476;-66
2023/10/30 09:46:55;;;;;;;2.97;2.70;;;16.80;99.90;;;;;;4971599;28;20492;-67
2023/10/30 09:49:24;;;;;;;3.20;2.90;;;16.80;99.90;;;;;;4973517;28;20576;-66
2023/10/30 09:51:52;;;;;;;3.20;2.90;;;16.70;99.90;;;;;;4970890;28;20482;-66
2023/10/30 09:54:20;;;;;;;4.70;3.30;;;16.80;99.90;;;;;;4973035;28;20496;-66
2023/10/30 09:56:48;;;;;;;2.87;2.57;;;16.70;99.90;;;;;;4969113;28;20462;-66
2023/10/30 09:59:16;;;;;;;4.20;2.90;;;16.60;99.90;;;;;;4974615;28;20496;-67
2023/10/30 10:01:43;;;;;;;2.70;2.40;;;16.50;99.90;;;;;;4973681;28;20845;-66
2023/10/30 10:04:12;;;;;;;3.83;3.43;;;16.40;99.90;;;;;;4974167;28;20538;-66
2023/10/30 10:06:42;;;;;;;2.70;2.40;;;16.40;99.90;;;;;;4974097;28;21035;-67
2023/10/30 10:09:09;;;;;;;5.30;2.93;;;16.30;99.90;;;;;;4974531;28;20564;-67
2023/10/30 10:11:36;;;;;;;2.83;2.53;;;16.30;99.90;;;;;;4973922;28;20484;-66
2023/10/30 10:14:04;;;;;;;3.13;2.83;;;16.30;99.90;;;;;;4974402;28;20477;-67
2023/10/30 10:16:31;;;;;;;3.10;2.80;;;16.50;99.90;;;;;;4972746;28;20470;-67
2023/10/30 10:18:58;;;;;;;5.63;2.87;;;16.60;99.90;;;;;;4973680;28;20994;-67
2023/10/30 10:21:26;;;;;;;2.20;2.10;;;16.70;99.90;;;;;;4973483;28;20542;-66
2023/10/30 10:23:53;;;;;;;4.03;3.20;;;16.80;99.90;;;;;;4973014;28;21053;-66
2023/10/30 10:26:30;;;;;;;2.60;2.40;;;16.80;99.90;;;;;;4973909;28;20473;-66
2023/10/30 10:28:57;;;;;;;3.90;2.53;;;16.70;99.90;;;;;;4970043;28;20477;-67
2023/10/30 10:31:23;;;;;;;2.77;2.50;;;16.60;99.90;;;;;;4973400;28;20494;-66
2023/10/30 10:33:51;;;;;;;3.90;2.87;;;16.50;99.90;;;;;;4973843;28;20463;-67
2023/10/30 10:36:18;;;;;;;2.93;2.70;;;16.30;99.90;;;;;;4973342;28;20521;-66
2023/10/30 10:38:58;;;;;;;3.40;2.20;;;16.20;99.90;;;;;;4973228;28;20484;-66
2023/10/30 10:41:27;;;;;;;3.33;2.60;;;16.00;99.90;;;;;;4973035;28;20521;-67
2023/10/30 10:43:55;;;;;;;3.30;2.57;;;15.90;99.90;;;;;;4968957;28;20514;-67
2023/10/30 10:46:22;;;;;;;2.20;2.00;;;15.80;99.90;;;;;;4972473;28;20460;-67
2023/10/30 10:48:49;;;;;;;2.20;2.00;;;15.70;99.90;;;;;;4972851;28;20527;-66
2023/10/30 10:51:20;;;;;;;2.60;2.20;;;15.60;99.90;;;;;;4973287;28;20475;-66
2023/10/30 10:53:49;;;;;;;2.43;2.07;;;15.50;99.90;;;;;;4972485;28;20534;-66
2023/10/30 10:56:18;;;;;;;1.97;1.77;;;15.40;99.90;;;;;;4973422;28;20478;-64
2023/10/30 10:58:55;;;;;;;2.10;1.90;;;15.30;99.90;;;;;;4968450;28;20500;-67
2023/10/30 11:01:30;;;;;;;2.93;1.97;;;15.30;99.90;;;;;;4973453;28;20866;-66
2023/10/30 11:03:58;;;;;;;2.67;2.33;;;15.20;99.90;;;;;;4970316;28;20471;-66
2023/10/30 11:06:33;;;;;;;2.50;2.07;;;15.20;99.90;;;;;;4973075;28;20482;-67
2023/10/30 11:09:09;;;;;;;2.50;2.10;;;15.20;99.90;;;;;;4970858;28;20538;-67
2023/10/30 11:11:43;;;;;;;2.20;1.97;;;15.20;99.90;;;;;;4971030;28;20484;-67
2023/10/30 11:14:23;;;;;;;3.20;2.40;;;15.10;99.90;;;;;;4973688;28;20464;-68
2023/10/30 11:17:00;;;;;;;2.90;1.70;;;15.10;99.90;;;;;;4972719;28;20491;-68
2023/10/30 11:19:28;;;;;;;1.53;1.43;;;15.10;99.90;;;;;;4969639;28;20568;-67
2023/10/30 11:21:55;;;;;;;2.13;1.93;;;15.00;99.90;;;;;;4967468;28;20495;-67
2023/10/30 11:24:39;;;;;;;1.60;1.50;;;15.00;99.90;;;;;;4972868;28;20468;-67
2023/10/30 11:27:35;;;;;;;2.03;1.83;;;15.10;99.90;;;;;;4972481;28;20524;-67
2023/10/30 11:30:11;;;;;;;2.13;1.50;;;15.00;99.90;;;;;;4973157;28;20463;-67
2023/10/30 11:32:52;;;;;;;2.43;1.70;;;15.00;99.90;;;;;;4971720;28;20533;-69
2023/10/30 11:35:23;;;;;;;1.40;1.30;;;14.90;99.90;;;;;;4971676;28;20518;-69
2023/10/30 11:37:51;;;;;;;1.70;1.33;;;14.80;99.90;;;;;;4971590;28;20538;-68
2023/10/30 11:40:18;;;;;;;1.40;1.20;;;14.80;99.90;;;;;;4972378;28;20479;-68
2023/10/30 11:42:46;;;;;;;2.30;1.43;;;14.80;99.90;;;;;;4971839;28;20478;-68
2023/10/30 11:45:24;;;;;;;2.60;1.43;;;14.80;99.90;;;;;;4972300;28;20475;-67
2023/10/30 11:47:58;;;;;;;2.30;1.10;;;14.80;99.90;;;;;;4973007;28;20510;-67
2023/10/30 11:50:27;;;;;;;1.40;1.03;;;14.80;99.90;;;;;;4966665;28;20479;-67
2023/10/30 11:52:55;;;;;;;1.30;1.00;;;14.80;99.90;;;;;;4969231;28;20510;-68
2023/10/30 11:55:23;;;;;;;1.50;1.33;;;14.70;99.90;;;;;;4971682;28;20846;-68
2023/10/30 11:57:52;;;;;;;1.77;1.37;;;14.70;99.90;;;;;;4970474;28;20846;-68
2023/10/30 12:00:19;;;;;;;3.03;1.20;;;14.70;99.90;;;;;;4971679;28;20865;-67
2023/10/30 12:02:46;;;;;;;1.20;1.10;;;14.70;99.90;;;;;;4971586;28;20560;-68
2023/10/30 12:05:13;;;;;;;1.23;1.13;;;14.70;99.90;;;;;;4971052;28;20506;-68
2023/10/30 12:07:40;;;;;;;1.00;0.90;;;14.70;99.90;;;;;;4970049;28;20482;-67
2023/10/30 12:10:08;;;;;;;1.10;1.00;;;14.80;99.90;;;;;;4968036;28;20484;-67
2023/10/30 12:12:35;;;;;;;1.37;1.20;;;14.80;99.90;;;;;;4971084;28;20487;-66
2023/10/30 12:15:04;;;;;;;2.20;1.20;;;14.90;99.90;;;;;;4970938;28;20463;-67
2023/10/30 12:17:31;;;;;;;2.13;1.33;;;15.00;99.90;;;;;;4970924;28;20471;-67
2023/10/30 12:19:57;;;;;;;2.47;1.33;;;15.10;99.90;;;;;;4970850;28;20509;-68
2023/10/30 12:22:24;;;;;;;1.10;1.00;;;15.10;99.90;;;;;;4971173;28;21004;-68
2023/10/30 12:24:51;;;;;;;2.50;1.10;;;15.20;99.90;;;;;;4970636;28;20534;-69
2023/10/30 12:27:21;;;;;;;1.00;0.87;;;15.10;99.90;;;;;;4971229;28;20843;-67
2023/10/30 12:29:53;;;;;;;3.03;1.30;;;15.10;99.90;;;;;;4970259;28;20466;-67
2023/10/30 12:32:21;;;;;;;2.00;1.00;;;15.10;99.90;;;;;;4971350;28;20492;-67
2023/10/30 12:34:48;;;;;;;1.30;1.20;;;15.20;99.90;;;;;;4969799;28;20464;-68
2023/10/30 12:37:19;;;;;;;1.87;1.00;;;15.10;99.90;;;;;;4970837;28;20472;-67
2023/10/30 12:40:00;;;;;;;1.50;1.10;;;15.10;99.90;;;;;;4970757;28;20522;-67
2023/10/30 12:42:27;;;;;;;1.53;1.23;;;15.00;99.90;;;;;;4971161;28;20483;-68
2023/10/30 12:44:54;;;;;;;1.07;0.97;;;15.00;99.90;;;;;;4969773;28;20463;-68
2023/10/30 12:47:22;;;;;;;1.60;1.30;;;15.10;99.90;;;;;;4970546;28;20467;-68
2023/10/30 12:49:49;;;;;;;1.53;1.20;;;15.10;99.90;;;;;;4970450;28;21007;-68
2023/10/30 12:52:16;;;;;;;1.20;1.10;;;15.10;99.90;;;;;;4970766;28;20507;-67
2023/10/30 12:54:43;;;;;;;2.60;1.50;;;15.10;99.90;;;;;;4970556;28;20463;-68
2023/10/30 12:57:09;;;;;;;2.17;1.40;;;15.10;99.90;;;;;;4967563;28;20461;-67
2023/10/30 12:59:36;;;;;;;1.23;1.13;;;15.10;99.90;;;;;;4970325;28;20962;-67
2023/10/30 13:02:03;;;;;;;1.87;1.43;;;15.10;99.90;;;;;;4970459;28;20513;-67
2023/10/30 13:04:32;;;;;;;1.40;1.27;;;15.00;99.90;;;;;;4970682;28;20468;-68
2023/10/30 13:06:59;;;;;;;2.17;1.30;;;15.00;99.90;;;;;;4966071;28;20568;-68
2023/10/30 13:09:26;;;;;;;1.87;1.13;;;15.00;99.90;;;;;;4965569;28;20844;-67
2023/10/30 13:11:52;;;;;;;0.90;0.77;;;14.90;99.90;;;;;;4970350;28;20476;-67
2023/10/30 13:14:19;;;;;;;1.13;1.00;;;14.90;99.90;;;;;;4969697;28;20467;-68
2023/10/30 13:16:46;;;;;;;1.20;1.10;;;14.90;99.90;;;;;;4970099;28;20847;-67
2023/10/30 13:19:13;;;;;;;2.00;1.00;;;14.80;99.90;;;;;;4970937;28;20469;-68
2023/10/30 13:21:41;;;;;;;1.60;1.40;;;14.80;99.90;;;;;;4970013;28;20496;-67
2023/10/30 13:24:09;;;;;;;1.77;1.37;;;14.80;99.90;;;;;;4970434;28;20473;-67
2023/10/30 13:26:36;;;;;;;1.30;1.20;;;14.70;99.90;;;;;;4970325;28;20880;-68
2023/10/30 13:29:03;;;;;;;1.70;1.30;;;14.70;99.90;;;;;;4969992;28;20955;-68
2023/10/30 13:31:30;;;;;;;1.33;1.23;;;14.70;99.90;;;;;;4970271;28;20527;-67
2023/10/30 13:33:56;;;;;;;1.30;1.20;;;14.70;99.90;;;;;;4970135;28;20993;-68
2023/10/30 13:36:24;;;;;;;1.20;1.03;;;14.70;99.90;;;;;;4967589;28;21008;-67
2023/10/30 13:38:52;;;;;;;1.53;1.17;;;14.60;99.90;;;;;;4969594;28;20471;-68
2023/10/30 13:41:18;;;;;;;1.40;1.20;;;14.60;99.90;;;;;;4970352;28;20510;-68
2023/10/30 13:43:45;;;;;;;1.30;1.20;;;14.60;99.90;;;;;;4969715;28;20478;-67
2023/10/30 13:46:12;;;;;;;2.13;1.30;;;14.60;99.90;;;;;;4969953;28;20468;-69
2023/10/30 13:48:39;;;;;;;3.83;2.50;;;14.60;99.90;;;;;;4970551;28;20471;-68
2023/10/30 13:51:06;;;;;;;2.20;1.50;;;14.60;99.90;;;;;;4970087;28;20516;-68
2023/10/30 13:53:33;;;;;;;3.00;1.97;;;14.60;99.90;;;;;;4970035;28;20468;-67
2023/10/30 13:56:01;;;;;;;2.40;1.63;;;14.60;99.90;;;;;;4969849;28;20491;-68
2023/10/30 13:58:28;;;;;;;2.40;1.20;;;14.60;99.90;;;;;;4967440;28;20467;-68
2023/10/30 14:00:54;;;;;;;2.90;1.40;;;14.60;99.90;;;;;;4973581;28;20996;-69
2023/10/30 14:03:21;;;;;;;1.33;1.23;;;14.60;99.90;;;;;;4973890;28;20479;-68
2023/10/30 14:05:48;;;;;;;1.90;1.13;;;14.60;99.90;;;;;;4973098;28;20849;-68
2023/10/30 14:08:14;;;;;;;2.73;1.03;;;14.50;99.90;;;;;;4973452;28;20492;-68
2023/10/30 14:10:41;;;;;;;1.30;1.20;;;14.50;99.90;;;;;;4974023;28;20475;-68
2023/10/30 14:13:10;;;;;;;1.13;1.03;;;14.60;99.90;;;;;;4973197;28;20463;-68
2023/10/30 14:15:37;;;;;;;1.67;1.40;;;14.50;99.90;;;;;;4973154;28;20478;-68
2023/10/30 14:18:04;;;;;;;1.30;1.00;;;14.50;99.90;;;;;;4973618;28;20995;-68
2023/10/30 14:20:31;;;;;;;1.57;1.40;;;14.50;99.90;;;;;;4973892;28;20534;-68
2023/10/30 14:22:58;;;;;;;2.00;1.50;;;14.50;99.90;;;;;;4973506;28;20474;-68
2023/10/30 14:25:25;;;;;;;1.80;1.37;;;14.50;99.90;;;;;;4972853;28;20471;-68
2023/10/30 14:27:51;;;;;;;1.33;1.23;;;14.50;99.90;;;;;;4972978;28;20478;-68
2023/10/30 14:30:19;;;;;;;1.87;1.30;;;14.50;99.90;;;;;;4972926;28;20471;-68
2023/10/30 14:32:46;;;;;;;1.30;1.13;;;14.50;99.90;;;;;;4973128;28;20527;-68
2023/10/30 14:35:13;;;;;;;1.93;1.33;;;14.50;99.90;;;;;;4972425;28;20478;-68
2023/10/30 14:37:40;;;;;;;1.70;1.60;;;14.50;99.90;;;;;;4972721;28;20571;-68
2023/10/30 14:40:08;;;;;;;3.73;1.57;;;14.50;99.90;;;;;;4972561;28;20980;-68
2023/10/30 14:42:35;;;;;;;2.87;1.40;;;14.40;99.90;;;;;;4968122;28;20483;-68
2023/10/30 14:45:03;;;;;;;1.60;1.40;;;14.40;99.90;;;;;;4971858;28;20482;-68
2023/10/30 14:47:31;;;;;;;4.03;2.20;;;14.30;99.90;;;;;;4972874;28;20842;-68
2023/10/30 14:49:58;;;;;;;2.20;1.73;;;14.30;99.90;;;;;;4972615;28;20525;-68
2023/10/30 14:52:25;;;;;;;2.00;1.47;;;14.30;99.90;;;;;;4972743;28;20486;-68
2023/10/30 14:54:51;;;;;;;1.77;1.67;;;14.30;99.90;;;;;;4972436;28;20470;-68
2023/10/30 14:57:18;;;;;;;2.67;1.70;;;14.30;99.90;;;;;;4973419;28;20563;-68
2023/10/30 14:59:45;;;;;;;2.27;1.70;;;14.30;99.90;;;;;;4973582;28;20842;-68
2023/10/30 15:02:11;;;;;;;2.80;1.57;;;14.40;99.90;;;;;;4972346;28;20498;-68
2023/10/30 15:04:40;;;;;;;2.83;1.77;;;14.30;99.90;;;;;;4972895;28;20482;-69
2023/10/30 15:07:06;;;;;;;1.50;1.40;;;14.30;99.90;;;;;;4971549;28;20475;-68
2023/10/30 15:09:33;;;;;;;1.33;1.20;;;14.30;99.90;;;;;;4972282;28;20481;-69
2023/10/30 15:12:00;;;;;;;1.90;1.50;;;14.30;99.90;;;;;;4969689;28;20483;-69
2023/10/30 15:14:28;;;;;;;3.27;1.90;;;14.30;99.90;;;;;;4971491;28;20470;-68
2023/10/30 15:16:55;;;;;;;2.00;1.73;;;14.30;99.90;;;;;;4971886;28;20463;-68
2023/10/30 15:19:23;;;;;;;2.20;1.63;;;14.30;99.90;;;;;;4972386;28;20474;-68
2023/10/30 15:21:52;;;;;;;1.83;1.30;;;14.20;99.90;;;;;;4971698;28;20495;-69
2023/10/30 15:24:18;;;;;;;1.70;1.47;;;14.20;99.90;;;;;;4970098;28;20479;-68
2023/10/30 15:26:45;;;;;;;3.07;1.60;;;14.20;99.90;;;;;;4969905;28;20466;-68
2023/10/30 15:29:12;;;;;;;3.73;1.57;;;14.20;99.90;;;;;;4970070;28;20475;-68
2023/10/30 15:31:38;;;;;;;4.93;2.53;;;14.20;99.90;;;;;;4971889;28;20935;-68
2023/10/30 15:34:05;;;;;;;3.10;1.90;;;14.10;99.90;;;;;;4969501;28;20490;-68
2023/10/30 15:36:32;;;;;;;9.13;2.47;;;14.10;99.90;;;;;;4971407;28;21002;-68
2023/10/30 15:39:00;;;;;;;3.90;2.73;;;14.10;99.90;;;;;;4971752;28;20471;-68
2023/10/30 15:41:27;;;;;;;6.67;2.77;;;14.00;99.90;;;;;;4964631;28;20494;-68
2023/10/30 15:43:54;;;;;;;12.20;3.97;;;14.00;99.90;;;;;;4971275;28;20841;-68
2023/10/30 15:46:20;;;;;;;11.93;5.53;;;14.00;99.90;;;;;;4970270;28;20475;-68
2023/10/30 15:48:49;;;;;;;15.77;4.90;;;14.00;99.90;;;;;;4972015;28;20563;-68
2023/10/30 15:51:16;;;;;;;11.80;3.90;;;13.90;99.90;;;;;;4970695;28;20635;-68
2023/10/30 15:53:43;;;;;;;4.97;2.10;;;13.90;99.90;;;;;;4971698;28;20534;-68
2023/10/30 15:56:11;;;;;;;3.50;2.13;;;13.90;99.90;;;;;;4970612;28;20467;-68
2023/10/30 15:58:38;;;;;;;3.80;2.40;;;13.80;99.90;;;;;;4971255;28;20852;-68
2023/10/30 16:01:04;;;;;;;2.93;1.93;;;13.80;99.90;;;;;;4971206;28;20505;-68
2023/10/30 16:03:31;;;;;;;2.50;1.77;;;13.80;99.90;;;;;;4971768;28;20470;-68
2023/10/30 16:05:58;;;;;;;2.07;1.83;;;13.70;99.90;;;;;;4969487;28;20481;-68
2023/10/30 16:08:24;;;;;;;2.50;1.87;;;13.70;99.90;;;;;;4969208;28;20475;-68
2023/10/30 16:10:51;;;;;;;3.83;1.80;;;13.60;99.90;;;;;;4971312;28;20497;-68
2023/10/30 16:13:19;;;;;;;1.60;1.50;;;13.60;99.90;;;;;;4970284;28;20475;-68
2023/10/30 16:15:47;;;;;;;2.35;1.73;;;13.50;99.90;;;;;;4970919;28;20461;-68
2023/10/30 16:18:16;;;;;;;2.07;1.47;;;13.50;99.90;;;;;;4970895;28;20276;-68
2023/10/30 16:20:43;;;;;;;1.67;1.50;;;13.50;99.90;;;;;;4970681;28;20952;-69
2023/10/30 16:23:10;;;;;;;2.00;1.80;;;13.50;99.90;;;;;;4970945;28;20475;-68
2023/10/30 16:25:36;;;;;;;2.63;2.10;;;13.50;99.90;;;;;;4970952;28;20990;-69
2023/10/30 16:28:03;;;;;;;3.20;1.83;;;13.50;99.90;;;;;;4970504;28;20873;-68
2023/10/30 16:30:32;;;;;;;1.70;1.47;;;13.50;99.90;;;;;;4971185;28;20925;-68
2023/10/30 16:32:58;;;;;;;2.93;1.70;;;13.50;99.90;;;;;;4971428;28;20474;-69
2023/10/30 16:35:25;;;;;;;3.07;2.73;;;13.50;99.90;;;;;;4970333;28;20880;-68
2023/10/30 16:37:52;;;;;;;1.60;1.50;;;13.40;99.90;;;;;;4969916;28;20475;-68
2023/10/30 16:40:18;;;;;;;1.70;1.60;;;13.40;99.90;;;;;;4970665;28;20479;-68
2023/10/30 16:42:45;;;;;;;3.10;2.47;;;13.40;99.90;;;;;;4971047;28;20936;-69
2023/10/30 16:45:12;;;;;;;1.77;1.63;;;13.30;99.90;;;;;;4970369;28;20470;-69
2023/10/30 16:47:41;;;;;;;3.60;3.20;;;13.30;99.90;;;;;;4969064;28;20467;-68
2023/10/30 16:50:08;;;;;;;3.67;3.27;;;13.30;99.90;;;;;;4971063;28;20526;-68
2023/10/30 16:52:35;;;;;;;2.50;2.30;;;13.30;99.90;;;;;;4963261;28;20487;-68
2023/10/30 16:55:02;;;;;;;2.27;1.80;;;13.30;99.90;;;;;;4962971;28;20478;-68
2023/10/30 16:57:29;;;;;;;2.50;1.70;;;13.30;99.90;;;;;;4959109;28;20559;-68
2023/10/30 16:59:55;;;;;;;2.53;1.60;;;13.30;99.90;;;;;;4967020;28;20493;-69
2023/10/30 17:02:22;;;;;;;3.67;2.00;;;13.30;99.90;;;;;;4969563;28;20493;-68
2023/10/30 17:04:50;;;;;;;3.03;1.90;;;13.30;99.90;;;;;;4970467;28;20470;-68
2023/10/30 17:07:17;;;;;;;2.40;2.07;;;13.30;99.90;;;;;;4969884;28;20471;-68
2023/10/30 17:09:44;;;;;;;3.43;2.80;;;13.30;99.90;;;;;;4970647;28;20477;-68
2023/10/30 17:12:11;;;;;;;2.17;1.57;;;13.30;99.90;;;;;;4970118;28;20489;-68
2023/10/30 17:14:37;;;;;;;3.17;2.60;;;13.40;99.90;;;;;;4970628;28;20471;-68
2023/10/30 17:17:04;;;;;;;3.67;3.10;;;13.40;99.90;;;;;;4970473;28;20497;-69
2023/10/30 17:19:31;;;;;;;4.07;3.20;;;13.40;99.90;;;;;;4958954;28;20467;-68
2023/10/30 17:21:59;;;;;;;5.80;3.27;;;13.40;99.90;;;;;;4969559;28;20505;-68